sensor_id;sensor_type;location;lat;lon;timestamp;temperature;humidity
52609;DHT22;38503;48.544;12.142;2022-11-20T00:01:18;4.20;99.90
52609;DHT22;38503;48.544;12.142;2022-11-20T00:03:46;4.00;99.90
52609;DHT22;38503;48.544;12.142;2022-11-20T00:06:17;4.00;99.90
52609;DHT22;38503;48.544;12.142;2022-11-20T00:08:44;4.00;99.90
52609;DHT22;38503;48.544;12.142;2022-11-20T00:13:46;4.00;99.90
52609;DHT22;38503;48.544;12.142;2022-11-20T00:16:15;4.00;99.90
52609;DHT22;38503;48.544;12.142;2022-11-20T00:18:42;4.00;99.90
52609;DHT22;38503;48.544;12.142;2022-11-20T00:21:15;4.00;99.90
52609;DHT22;38503;48.544;12.142;2022-11-20T00:23:42;4.10;99.90
52609;DHT22;38503;48.544;12.142;2022-11-20T00:26:12;4.10;99.90
52609;DHT22;38503;48.544;12.142;2022-11-20T00:28:39;4.10;99.90
52609;DHT22;38503;48.544;12.142;2022-11-20T00:31:10;4.10;99.90
52609;DHT22;38503;48.544;12.142;2022-11-20T00:33:37;4.10;99.90
52609;DHT22;38503;48.544;12.142;2022-11-20T00:36:15;4.10;99.90
52609;DHT22;38503;48.544;12.142;2022-11-20T00:38:43;4.10;99.90
52609;DHT22;38503;48.544;12.142;2022-11-20T00:41:14;4.10;99.90
52609;DHT22;38503;48.544;12.142;2022-11-20T00:43:42;4.10;99.90
52609;DHT22;38503;48.544;12.142;2022-11-20T00:46:17;4.00;99.90
52609;DHT22;38503;48.544;12.142;2022-11-20T00:48:45;4.00;99.90
52609;DHT22;38503;48.544;12.142;2022-11-20T00:51:17;4.10;99.90
52609;DHT22;38503;48.544;12.142;2022-11-20T00:53:45;4.10;99.90
52609;DHT22;38503;48.544;12.142;2022-11-20T00:56:15;4.00;99.90
52609;DHT22;38503;48.544;12.142;2022-11-20T00:58:47;4.10;99.90
52609;DHT22;38503;48.544;12.142;2022-11-20T01:01:19;4.10;99.90
52609;DHT22;38503;48.544;12.142;2022-11-20T01:03:49;4.10;99.90
52609;DHT22;38503;48.544;12.142;2022-11-20T01:06:20;4.00;99.90
52609;DHT22;38503;48.544;12.142;2022-11-20T01:08:48;4.00;99.90
52609;DHT22;38503;48.544;12.142;2022-11-20T01:11:18;4.00;99.90
52609;DHT22;38503;48.544;12.142;2022-11-20T01:13:47;4.10;99.90
52609;DHT22;38503;48.544;12.142;2022-11-20T01:18:46;3.90;99.90
52609;DHT22;38503;48.544;12.142;2022-11-20T01:21:22;3.90;99.90
52609;DHT22;38503;48.544;12.142;2022-11-20T01:23:50;3.90;99.90
52609;DHT22;38503;48.544;12.142;2022-11-20T01:26:23;3.80;99.90
52609;DHT22;38503;48.544;12.142;2022-11-20T01:28:51;3.80;99.90
52609;DHT22;38503;48.544;12.142;2022-11-20T01:31:23;3.90;99.90
52609;DHT22;38503;48.544;12.142;2022-11-20T01:33:53;3.80;99.90
52609;DHT22;38503;48.544;12.142;2022-11-20T01:36:22;3.70;99.90
52609;DHT22;38503;48.544;12.142;2022-11-20T01:38:58;3.60;99.90
52609;DHT22;38503;48.544;12.142;2022-11-20T01:41:27;3.60;99.90
52609;DHT22;38503;48.544;12.142;2022-11-20T01:44:17;3.60;99.90
52609;DHT22;38503;48.544;12.142;2022-11-20T01:49:26;3.70;99.90
52609;DHT22;38503;48.544;12.142;2022-11-20T01:51:58;3.70;99.90
52609;DHT22;38503;48.544;12.142;2022-11-20T01:54:39;3.80;99.90
52609;DHT22;38503;48.544;12.142;2022-11-20T01:57:09;3.70;99.90
52609;DHT22;38503;48.544;12.142;2022-11-20T01:59:40;3.80;99.90
52609;DHT22;38503;48.544;12.142;2022-11-20T02:02:08;3.80;99.90
52609;DHT22;38503;48.544;12.142;2022-11-20T02:04:36;3.80;99.90
52609;DHT22;38503;48.544;12.142;2022-11-20T02:07:04;3.70;99.90
52609;DHT22;38503;48.544;12.142;2022-11-20T02:09:32;3.70;99.90
52609;DHT22;38503;48.544;12.142;2022-11-20T02:11:59;3.80;99.90
52609;DHT22;38503;48.544;12.142;2022-11-20T02:14:26;3.80;99.90
52609;DHT22;38503;48.544;12.142;2022-11-20T02:16:54;3.80;99.90
52609;DHT22;38503;48.544;12.142;2022-11-20T02:19:30;3.80;99.90
52609;DHT22;38503;48.544;12.142;2022-11-20T02:24:39;3.90;99.90
52609;DHT22;38503;48.544;12.142;2022-11-20T02:27:21;3.90;99.90
52609;DHT22;38503;48.544;12.142;2022-11-20T02:29:53;3.90;99.90
52609;DHT22;38503;48.544;12.142;2022-11-20T02:32:32;4.00;99.90
52609;DHT22;38503;48.544;12.142;2022-11-20T02:37:48;3.90;99.90
52609;DHT22;38503;48.544;12.142;2022-11-20T02:40:16;3.90;99.90
52609;DHT22;38503;48.544;12.142;2022-11-20T02:42:43;3.90;99.90
52609;DHT22;38503;48.544;12.142;2022-11-20T02:45:11;3.90;99.90
52609;DHT22;38503;48.544;12.142;2022-11-20T02:47:38;3.90;99.90
52609;DHT22;38503;48.544;12.142;2022-11-20T02:50:05;3.90;99.90
52609;DHT22;38503;48.544;12.142;2022-11-20T02:52:32;3.90;99.90
52609;DHT22;38503;48.544;12.142;2022-11-20T02:54:59;3.90;99.90
52609;DHT22;38503;48.544;12.142;2022-11-20T02:57:27;3.90;99.90
52609;DHT22;38503;48.544;12.142;2022-11-20T02:59:54;3.90;99.90
52609;DHT22;38503;48.544;12.142;2022-11-20T03:02:21;4.00;99.90
52609;DHT22;38503;48.544;12.142;2022-11-20T03:04:48;4.00;99.90
52609;DHT22;38503;48.544;12.142;2022-11-20T03:07:15;4.10;99.90
52609;DHT22;38503;48.544;12.142;2022-11-20T03:09:42;4.10;99.90
52609;DHT22;38503;48.544;12.142;2022-11-20T03:12:09;4.20;99.90
52609;DHT22;38503;48.544;12.142;2022-11-20T03:14:36;4.20;99.90
52609;DHT22;38503;48.544;12.142;2022-11-20T03:17:02;4.20;99.90
52609;DHT22;38503;48.544;12.142;2022-11-20T03:19:29;4.30;99.90
52609;DHT22;38503;48.544;12.142;2022-11-20T03:21:56;4.30;99.90
52609;DHT22;38503;48.544;12.142;2022-11-20T03:24:23;4.40;99.90
52609;DHT22;38503;48.544;12.142;2022-11-20T03:26:50;4.40;99.90
52609;DHT22;38503;48.544;12.142;2022-11-20T03:29:17;4.40;99.90
52609;DHT22;38503;48.544;12.142;2022-11-20T03:31:44;4.50;99.90
52609;DHT22;38503;48.544;12.142;2022-11-20T03:34:12;4.50;99.90
52609;DHT22;38503;48.544;12.142;2022-11-20T03:36:39;4.50;99.90
52609;DHT22;38503;48.544;12.142;2022-11-20T03:39:07;4.50;99.90
52609;DHT22;38503;48.544;12.142;2022-11-20T03:41:39;4.60;99.90
52609;DHT22;38503;48.544;12.142;2022-11-20T03:44:07;4.50;99.90
52609;DHT22;38503;48.544;12.142;2022-11-20T03:46:35;4.50;99.90
52609;DHT22;38503;48.544;12.142;2022-11-20T03:49:02;4.50;99.90
52609;DHT22;38503;48.544;12.142;2022-11-20T03:51:32;4.50;99.90
52609;DHT22;38503;48.544;12.142;2022-11-20T03:54:01;4.60;99.90
52609;DHT22;38503;48.544;12.142;2022-11-20T03:56:30;4.60;99.90
52609;DHT22;38503;48.544;12.142;2022-11-20T03:58:58;4.60;99.90
52609;DHT22;38503;48.544;12.142;2022-11-20T04:01:27;4.60;99.90
52609;DHT22;38503;48.544;12.142;2022-11-20T04:03:56;4.60;99.90
52609;DHT22;38503;48.544;12.142;2022-11-20T04:06:26;4.50;99.90
52609;DHT22;38503;48.544;12.142;2022-11-20T04:08:57;4.50;99.90
52609;DHT22;38503;48.544;12.142;2022-11-20T04:11:26;4.60;99.90
52609;DHT22;38503;48.544;12.142;2022-11-20T04:13:55;4.60;99.90
52609;DHT22;38503;48.544;12.142;2022-11-20T04:16:24;4.60;99.90
52609;DHT22;38503;48.544;12.142;2022-11-20T04:18:54;4.60;99.90
52609;DHT22;38503;48.544;12.142;2022-11-20T04:21:21;4.60;99.90
52609;DHT22;38503;48.544;12.142;2022-11-20T04:23:49;4.60;99.90
52609;DHT22;38503;48.544;12.142;2022-11-20T04:26:16;4.70;99.90
52609;DHT22;38503;48.544;12.142;2022-11-20T04:28:43;4.70;99.90
52609;DHT22;38503;48.544;12.142;2022-11-20T04:31:13;4.70;99.90
52609;DHT22;38503;48.544;12.142;2022-11-20T04:33:40;4.70;99.90
52609;DHT22;38503;48.544;12.142;2022-11-20T04:36:11;4.70;99.90
52609;DHT22;38503;48.544;12.142;2022-11-20T04:38:39;4.80;99.90
52609;DHT22;38503;48.544;12.142;2022-11-20T04:41:08;4.80;99.90
52609;DHT22;38503;48.544;12.142;2022-11-20T04:43:35;4.90;99.90
52609;DHT22;38503;48.544;12.142;2022-11-20T04:46:02;4.80;99.90
52609;DHT22;38503;48.544;12.142;2022-11-20T04:48:29;4.90;99.90
52609;DHT22;38503;48.544;12.142;2022-11-20T04:50:56;4.90;99.90
52609;DHT22;38503;48.544;12.142;2022-11-20T04:53:24;4.90;99.90
52609;DHT22;38503;48.544;12.142;2022-11-20T04:55:51;4.90;99.90
52609;DHT22;38503;48.544;12.142;2022-11-20T04:58:17;4.90;99.90
52609;DHT22;38503;48.544;12.142;2022-11-20T05:00:44;4.90;99.90
52609;DHT22;38503;48.544;12.142;2022-11-20T05:03:11;4.90;99.90
52609;DHT22;38503;48.544;12.142;2022-11-20T05:05:38;4.90;99.90
52609;DHT22;38503;48.544;12.142;2022-11-20T05:08:05;4.90;99.90
52609;DHT22;38503;48.544;12.142;2022-11-20T05:10:31;4.90;99.90
52609;DHT22;38503;48.544;12.142;2022-11-20T05:12:58;4.90;99.90
52609;DHT22;38503;48.544;12.142;2022-11-20T05:15:25;4.90;99.90
52609;DHT22;38503;48.544;12.142;2022-11-20T05:17:53;4.90;99.90
52609;DHT22;38503;48.544;12.142;2022-11-20T05:20:20;4.90;99.90
52609;DHT22;38503;48.544;12.142;2022-11-20T05:22:47;4.90;99.90
52609;DHT22;38503;48.544;12.142;2022-11-20T05:25:14;4.80;99.90
52609;DHT22;38503;48.544;12.142;2022-11-20T05:27:40;4.80;99.90
52609;DHT22;38503;48.544;12.142;2022-11-20T05:30:08;4.80;99.90
52609;DHT22;38503;48.544;12.142;2022-11-20T05:32:35;4.80;99.90
52609;DHT22;38503;48.544;12.142;2022-11-20T05:35:02;4.80;99.90
52609;DHT22;38503;48.544;12.142;2022-11-20T05:37:29;4.80;99.90
52609;DHT22;38503;48.544;12.142;2022-11-20T05:39:55;4.80;99.90
52609;DHT22;38503;48.544;12.142;2022-11-20T05:42:22;4.80;99.90
52609;DHT22;38503;48.544;12.142;2022-11-20T05:44:59;4.80;99.90
52609;DHT22;38503;48.544;12.142;2022-11-20T05:47:28;4.80;99.90
52609;DHT22;38503;48.544;12.142;2022-11-20T05:49:57;4.80;99.90
52609;DHT22;38503;48.544;12.142;2022-11-20T05:52:24;4.80;99.90
52609;DHT22;38503;48.544;12.142;2022-11-20T05:54:51;4.80;99.90
52609;DHT22;38503;48.544;12.142;2022-11-20T05:57:18;4.80;99.90
52609;DHT22;38503;48.544;12.142;2022-11-20T05:59:45;4.70;99.90
52609;DHT22;38503;48.544;12.142;2022-11-20T06:02:12;4.70;99.90
52609;DHT22;38503;48.544;12.142;2022-11-20T06:04:39;4.70;99.90
52609;DHT22;38503;48.544;12.142;2022-11-20T06:07:06;4.70;99.90
52609;DHT22;38503;48.544;12.142;2022-11-20T06:09:33;4.70;99.90
52609;DHT22;38503;48.544;12.142;2022-11-20T06:12:00;4.70;99.90
52609;DHT22;38503;48.544;12.142;2022-11-20T06:14:27;4.70;99.90
52609;DHT22;38503;48.544;12.142;2022-11-20T06:16:54;4.70;99.90
52609;DHT22;38503;48.544;12.142;2022-11-20T06:19:21;4.70;99.90
52609;DHT22;38503;48.544;12.142;2022-11-20T06:21:48;4.70;99.90
52609;DHT22;38503;48.544;12.142;2022-11-20T06:24:18;4.70;99.90
52609;DHT22;38503;48.544;12.142;2022-11-20T06:26:45;4.70;99.90
52609;DHT22;38503;48.544;12.142;2022-11-20T06:29:12;4.70;99.90
52609;DHT22;38503;48.544;12.142;2022-11-20T06:31:39;4.60;99.90
52609;DHT22;38503;48.544;12.142;2022-11-20T06:34:06;4.60;99.90
52609;DHT22;38503;48.544;12.142;2022-11-20T06:36:33;4.60;99.90
52609;DHT22;38503;48.544;12.142;2022-11-20T06:39:00;4.60;99.90
52609;DHT22;38503;48.544;12.142;2022-11-20T06:41:27;4.60;99.90
52609;DHT22;38503;48.544;12.142;2022-11-20T06:43:54;4.60;99.90
52609;DHT22;38503;48.544;12.142;2022-11-20T06:46:21;4.60;99.90
52609;DHT22;38503;48.544;12.142;2022-11-20T06:48:49;4.60;99.90
52609;DHT22;38503;48.544;12.142;2022-11-20T06:51:16;4.60;99.90
52609;DHT22;38503;48.544;12.142;2022-11-20T06:53:43;4.70;99.90
52609;DHT22;38503;48.544;12.142;2022-11-20T06:56:10;4.70;99.90
52609;DHT22;38503;48.544;12.142;2022-11-20T06:58:37;4.70;99.90
52609;DHT22;38503;48.544;12.142;2022-11-20T07:01:07;4.70;99.90
52609;DHT22;38503;48.544;12.142;2022-11-20T07:03:35;4.80;99.90
52609;DHT22;38503;48.544;12.142;2022-11-20T07:06:03;4.80;99.90
52609;DHT22;38503;48.544;12.142;2022-11-20T07:08:30;4.80;99.90
52609;DHT22;38503;48.544;12.142;2022-11-20T07:10:58;4.90;99.90
52609;DHT22;38503;48.544;12.142;2022-11-20T07:13:27;4.90;99.90
52609;DHT22;38503;48.544;12.142;2022-11-20T07:15:54;5.00;99.90
52609;DHT22;38503;48.544;12.142;2022-11-20T07:18:21;5.00;99.90
52609;DHT22;38503;48.544;12.142;2022-11-20T07:20:48;5.00;99.90
52609;DHT22;38503;48.544;12.142;2022-11-20T07:23:15;5.10;99.90
52609;DHT22;38503;48.544;12.142;2022-11-20T07:25:42;5.00;99.90
52609;DHT22;38503;48.544;12.142;2022-11-20T07:28:10;5.10;99.90
52609;DHT22;38503;48.544;12.142;2022-11-20T07:30:37;5.10;99.90
52609;DHT22;38503;48.544;12.142;2022-11-20T07:33:04;5.10;99.90
52609;DHT22;38503;48.544;12.142;2022-11-20T07:35:31;5.20;99.90
52609;DHT22;38503;48.544;12.142;2022-11-20T07:37:58;5.30;99.90
52609;DHT22;38503;48.544;12.142;2022-11-20T07:40:25;5.30;99.90
52609;DHT22;38503;48.544;12.142;2022-11-20T07:42:53;5.30;99.90
52609;DHT22;38503;48.544;12.142;2022-11-20T07:45:22;5.40;99.90
52609;DHT22;38503;48.544;12.142;2022-11-20T07:47:50;5.40;99.90
52609;DHT22;38503;48.544;12.142;2022-11-20T07:50:18;5.40;99.90
52609;DHT22;38503;48.544;12.142;2022-11-20T07:52:45;5.40;99.90
52609;DHT22;38503;48.544;12.142;2022-11-20T07:55:12;5.40;99.90
52609;DHT22;38503;48.544;12.142;2022-11-20T07:57:39;5.40;99.90
52609;DHT22;38503;48.544;12.142;2022-11-20T08:00:08;5.40;99.90
52609;DHT22;38503;48.544;12.142;2022-11-20T08:02:40;5.50;99.90
52609;DHT22;38503;48.544;12.142;2022-11-20T08:05:08;5.50;99.90
52609;DHT22;38503;48.544;12.142;2022-11-20T08:07:40;5.60;99.90
52609;DHT22;38503;48.544;12.142;2022-11-20T08:10:08;5.60;99.90
52609;DHT22;38503;48.544;12.142;2022-11-20T08:12:36;5.60;99.90
52609;DHT22;38503;48.544;12.142;2022-11-20T08:15:21;5.70;99.90
52609;DHT22;38503;48.544;12.142;2022-11-20T08:17:48;5.70;99.90
52609;DHT22;38503;48.544;12.142;2022-11-20T08:20:35;5.70;99.90
52609;DHT22;38503;48.544;12.142;2022-11-20T08:23:05;5.70;99.90
52609;DHT22;38503;48.544;12.142;2022-11-20T08:25:34;5.90;99.90
52609;DHT22;38503;48.544;12.142;2022-11-20T08:28:05;6.00;99.90
52609;DHT22;38503;48.544;12.142;2022-11-20T08:30:45;6.00;99.90
52609;DHT22;38503;48.544;12.142;2022-11-20T08:33:12;6.00;99.90
52609;DHT22;38503;48.544;12.142;2022-11-20T08:35:39;6.00;99.90
52609;DHT22;38503;48.544;12.142;2022-11-20T08:38:09;6.20;99.90
52609;DHT22;38503;48.544;12.142;2022-11-20T08:40:36;6.20;99.90
52609;DHT22;38503;48.544;12.142;2022-11-20T08:43:03;6.20;99.90
52609;DHT22;38503;48.544;12.142;2022-11-20T08:45:29;6.20;99.90
52609;DHT22;38503;48.544;12.142;2022-11-20T08:48:02;6.20;99.90
52609;DHT22;38503;48.544;12.142;2022-11-20T08:50:29;6.30;99.90
52609;DHT22;38503;48.544;12.142;2022-11-20T08:53:03;6.40;99.90
52609;DHT22;38503;48.544;12.142;2022-11-20T08:55:31;6.60;99.90
52609;DHT22;38503;48.544;12.142;2022-11-20T08:57:58;6.70;99.90
52609;DHT22;38503;48.544;12.142;2022-11-20T09:00:25;6.80;99.90
52609;DHT22;38503;48.544;12.142;2022-11-20T09:02:51;6.70;99.90
52609;DHT22;38503;48.544;12.142;2022-11-20T09:05:19;6.70;99.90
52609;DHT22;38503;48.544;12.142;2022-11-20T09:07:45;6.70;99.90
52609;DHT22;38503;48.544;12.142;2022-11-20T09:10:12;6.70;99.90
52609;DHT22;38503;48.544;12.142;2022-11-20T09:12:50;6.60;99.90
52609;DHT22;38503;48.544;12.142;2022-11-20T09:15:18;6.70;99.90
52609;DHT22;38503;48.544;12.142;2022-11-20T09:17:56;6.50;99.90
52609;DHT22;38503;48.544;12.142;2022-11-20T09:20:25;6.50;99.90
52609;DHT22;38503;48.544;12.142;2022-11-20T09:22:53;6.50;99.90
52609;DHT22;38503;48.544;12.142;2022-11-20T09:25:20;6.50;99.90
52609;DHT22;38503;48.544;12.142;2022-11-20T09:27:47;6.50;99.90
52609;DHT22;38503;48.544;12.142;2022-11-20T09:30:15;6.50;99.90
52609;DHT22;38503;48.544;12.142;2022-11-20T09:32:42;6.40;99.90
52609;DHT22;38503;48.544;12.142;2022-11-20T09:35:10;6.40;99.90
52609;DHT22;38503;48.544;12.142;2022-11-20T09:37:37;6.40;99.90
52609;DHT22;38503;48.544;12.142;2022-11-20T09:40:05;6.40;99.90
52609;DHT22;38503;48.544;12.142;2022-11-20T09:42:42;6.40;99.90
52609;DHT22;38503;48.544;12.142;2022-11-20T09:45:39;6.40;99.90
52609;DHT22;38503;48.544;12.142;2022-11-20T09:56:04;6.60;99.90
52609;DHT22;38503;48.544;12.142;2022-11-20T09:58:38;6.60;99.90
52609;DHT22;38503;48.544;12.142;2022-11-20T10:01:18;6.70;99.90
52609;DHT22;38503;48.544;12.142;2022-11-20T10:03:58;6.90;99.90
52609;DHT22;38503;48.544;12.142;2022-11-20T10:07:17;7.10;99.90
52609;DHT22;38503;48.544;12.142;2022-11-20T10:09:40;7.10;99.90
52609;DHT22;38503;48.544;12.142;2022-11-20T10:15:22;7.30;99.90
52609;DHT22;38503;48.544;12.142;2022-11-20T10:20:49;8.00;99.90
52609;DHT22;38503;48.544;12.142;2022-11-20T10:28:56;7.70;99.90
52609;DHT22;38503;48.544;12.142;2022-11-20T10:31:38;7.60;99.90
52609;DHT22;38503;48.544;12.142;2022-11-20T10:34:20;7.50;99.90
52609;DHT22;38503;48.544;12.142;2022-11-20T10:36:59;7.40;99.90
52609;DHT22;38503;48.544;12.142;2022-11-20T10:39:35;7.60;99.90
52609;DHT22;38503;48.544;12.142;2022-11-20T10:42:10;7.50;99.90
52609;DHT22;38503;48.544;12.142;2022-11-20T10:44:39;7.50;99.90
52609;DHT22;38503;48.544;12.142;2022-11-20T10:47:32;7.50;99.90
52609;DHT22;38503;48.544;12.142;2022-11-20T10:50:03;7.40;99.90
52609;DHT22;38503;48.544;12.142;2022-11-20T10:58:20;7.40;99.90
52609;DHT22;38503;48.544;12.142;2022-11-20T11:00:48;7.60;99.90
52609;DHT22;38503;48.544;12.142;2022-11-20T11:03:25;8.00;99.90
52609;DHT22;38503;48.544;12.142;2022-11-20T11:06:56;8.20;99.90
52609;DHT22;38503;48.544;12.142;2022-11-20T11:09:17;8.20;99.90
52609;DHT22;38503;48.544;12.142;2022-11-20T11:11:46;8.30;99.90
52609;DHT22;38503;48.544;12.142;2022-11-20T11:14:15;8.00;99.90
52609;DHT22;38503;48.544;12.142;2022-11-20T11:16:53;7.90;99.90
52609;DHT22;38503;48.544;12.142;2022-11-20T11:19:22;7.80;99.90
52609;DHT22;38503;48.544;12.142;2022-11-20T11:21:54;7.80;99.90
52609;DHT22;38503;48.544;12.142;2022-11-20T11:24:29;7.70;99.90
52609;DHT22;38503;48.544;12.142;2022-11-20T11:27:14;7.70;99.90
52609;DHT22;38503;48.544;12.142;2022-11-20T11:29:45;7.60;99.90
52609;DHT22;38503;48.544;12.142;2022-11-20T11:32:19;7.60;99.90
52609;DHT22;38503;48.544;12.142;2022-11-20T11:35:18;7.60;99.90
52609;DHT22;38503;48.544;12.142;2022-11-20T11:37:45;7.50;99.90
52609;DHT22;38503;48.544;12.142;2022-11-20T11:40:14;7.60;99.90
52609;DHT22;38503;48.544;12.142;2022-11-20T11:42:54;7.60;99.90
52609;DHT22;38503;48.544;12.142;2022-11-20T11:45:21;7.60;99.90
52609;DHT22;38503;48.544;12.142;2022-11-20T11:47:50;7.80;99.90
52609;DHT22;38503;48.544;12.142;2022-11-20T11:50:26;7.80;99.90
52609;DHT22;38503;48.544;12.142;2022-11-20T11:53:12;7.80;99.90
52609;DHT22;38503;48.544;12.142;2022-11-20T11:56:08;7.80;99.90
52609;DHT22;38503;48.544;12.142;2022-11-20T11:58:47;7.80;99.90
52609;DHT22;38503;48.544;12.142;2022-11-20T12:07:00;8.00;99.90
52609;DHT22;38503;48.544;12.142;2022-11-20T12:09:52;8.10;99.90
52609;DHT22;38503;48.544;12.142;2022-11-20T12:12:27;8.00;99.90
52609;DHT22;38503;48.544;12.142;2022-11-20T12:14:57;7.90;99.90
52609;DHT22;38503;48.544;12.142;2022-11-20T12:17:24;7.90;99.90
52609;DHT22;38503;48.544;12.142;2022-11-20T12:19:51;8.00;99.90
52609;DHT22;38503;48.544;12.142;2022-11-20T12:22:47;7.90;99.90
52609;DHT22;38503;48.544;12.142;2022-11-20T12:25:26;7.90;99.90
52609;DHT22;38503;48.544;12.142;2022-11-20T12:42:56;7.80;99.90
52609;DHT22;38503;48.544;12.142;2022-11-20T13:01:40;7.60;99.90
52609;DHT22;38503;48.544;12.142;2022-11-20T13:06:44;7.50;99.90
52609;DHT22;38503;48.544;12.142;2022-11-20T13:09:15;7.50;99.90
52609;DHT22;38503;48.544;12.142;2022-11-20T13:12:03;7.40;99.90
52609;DHT22;38503;48.544;12.142;2022-11-20T13:14:40;7.40;99.90
52609;DHT22;38503;48.544;12.142;2022-11-20T13:17:41;7.40;99.90
52609;DHT22;38503;48.544;12.142;2022-11-20T13:20:15;7.40;99.90
52609;DHT22;38503;48.544;12.142;2022-11-20T13:22:53;7.40;99.90
52609;DHT22;38503;48.544;12.142;2022-11-20T13:25:32;7.40;99.90
52609;DHT22;38503;48.544;12.142;2022-11-20T13:28:01;7.50;99.90
52609;DHT22;38503;48.544;12.142;2022-11-20T13:30:30;7.30;99.90
52609;DHT22;38503;48.544;12.142;2022-11-20T13:35:31;7.20;99.90
52609;DHT22;38503;48.544;12.142;2022-11-20T13:38:10;7.10;99.90
52609;DHT22;38503;48.544;12.142;2022-11-20T13:40:59;7.10;99.90
52609;DHT22;38503;48.544;12.142;2022-11-20T13:43:47;7.10;99.90
52609;DHT22;38503;48.544;12.142;2022-11-20T13:46:14;7.10;99.90
52609;DHT22;38503;48.544;12.142;2022-11-20T13:48:43;7.00;99.90
52609;DHT22;38503;48.544;12.142;2022-11-20T13:51:48;7.00;99.90
52609;DHT22;38503;48.544;12.142;2022-11-20T13:57:09;7.00;99.90
52609;DHT22;38503;48.544;12.142;2022-11-20T14:02:21;7.00;99.90
52609;DHT22;38503;48.544;12.142;2022-11-20T14:04:50;6.90;99.90
52609;DHT22;38503;48.544;12.142;2022-11-20T14:07:19;7.00;99.90
52609;DHT22;38503;48.544;12.142;2022-11-20T14:09:56;6.90;99.90
52609;DHT22;38503;48.544;12.142;2022-11-20T14:12:29;6.90;99.90
52609;DHT22;38503;48.544;12.142;2022-11-20T14:14:56;6.90;99.90
52609;DHT22;38503;48.544;12.142;2022-11-20T14:17:33;6.90;99.90
52609;DHT22;38503;48.544;12.142;2022-11-20T14:20:12;6.90;99.90
52609;DHT22;38503;48.544;12.142;2022-11-20T14:22:49;6.80;99.90
52609;DHT22;38503;48.544;12.142;2022-11-20T14:27:49;6.90;99.90
52609;DHT22;38503;48.544;12.142;2022-11-20T14:30:20;6.70;99.90
52609;DHT22;38503;48.544;12.142;2022-11-20T14:32:48;6.70;99.90
52609;DHT22;38503;48.544;12.142;2022-11-20T14:35:25;6.70;99.90
52609;DHT22;38503;48.544;12.142;2022-11-20T14:37:53;6.70;99.90
52609;DHT22;38503;48.544;12.142;2022-11-20T14:42:55;6.70;99.90
52609;DHT22;38503;48.544;12.142;2022-11-20T14:45:23;6.70;99.90
52609;DHT22;38503;48.544;12.142;2022-11-20T14:47:52;6.70;99.90
52609;DHT22;38503;48.544;12.142;2022-11-20T14:50:25;6.60;99.90
52609;DHT22;38503;48.544;12.142;2022-11-20T14:53:00;6.60;99.90
52609;DHT22;38503;48.544;12.142;2022-11-20T14:55:35;6.60;99.90
52609;DHT22;38503;48.544;12.142;2022-11-20T14:58:28;6.60;99.90
52609;DHT22;38503;48.544;12.142;2022-11-20T15:00:56;6.60;99.90
52609;DHT22;38503;48.544;12.142;2022-11-20T15:03:23;6.60;99.90
52609;DHT22;38503;48.544;12.142;2022-11-20T15:05:57;6.60;99.90
52609;DHT22;38503;48.544;12.142;2022-11-20T15:08:24;6.60;99.90
52609;DHT22;38503;48.544;12.142;2022-11-20T15:10:52;6.50;99.90
52609;DHT22;38503;48.544;12.142;2022-11-20T15:13:24;6.50;99.90
52609;DHT22;38503;48.544;12.142;2022-11-20T15:15:55;6.50;99.90
52609;DHT22;38503;48.544;12.142;2022-11-20T15:18:23;6.60;99.90
52609;DHT22;38503;48.544;12.142;2022-11-20T15:20:51;6.60;99.90
52609;DHT22;38503;48.544;12.142;2022-11-20T15:23:18;6.70;99.90
52609;DHT22;38503;48.544;12.142;2022-11-20T15:25:47;6.60;99.90
52609;DHT22;38503;48.544;12.142;2022-11-20T15:28:41;6.60;99.90
52609;DHT22;38503;48.544;12.142;2022-11-20T15:31:09;6.50;99.90
52609;DHT22;38503;48.544;12.142;2022-11-20T15:33:37;6.50;99.90
52609;DHT22;38503;48.544;12.142;2022-11-20T15:36:04;6.50;99.90
52609;DHT22;38503;48.544;12.142;2022-11-20T15:38:31;6.40;99.90
52609;DHT22;38503;48.544;12.142;2022-11-20T15:40:58;6.40;99.90
52609;DHT22;38503;48.544;12.142;2022-11-20T15:43:25;6.40;99.90
52609;DHT22;38503;48.544;12.142;2022-11-20T15:45:58;6.30;99.90
52609;DHT22;38503;48.544;12.142;2022-11-20T15:48:34;6.30;99.90
52609;DHT22;38503;48.544;12.142;2022-11-20T15:53:38;6.20;99.90
52609;DHT22;38503;48.544;12.142;2022-11-20T15:56:06;6.20;99.90
52609;DHT22;38503;48.544;12.142;2022-11-20T15:58:33;6.10;99.90
52609;DHT22;38503;48.544;12.142;2022-11-20T16:00:59;6.10;99.90
52609;DHT22;38503;48.544;12.142;2022-11-20T16:03:26;6.00;99.90
52609;DHT22;38503;48.544;12.142;2022-11-20T16:05:53;6.00;99.90
52609;DHT22;38503;48.544;12.142;2022-11-20T16:08:20;5.90;99.90
52609;DHT22;38503;48.544;12.142;2022-11-20T16:10:47;5.90;99.90
52609;DHT22;38503;48.544;12.142;2022-11-20T16:13:17;5.80;99.90
52609;DHT22;38503;48.544;12.142;2022-11-20T16:16:06;5.70;99.90
52609;DHT22;38503;48.544;12.142;2022-11-20T16:18:34;5.70;99.90
52609;DHT22;38503;48.544;12.142;2022-11-20T16:21:02;5.80;99.90
52609;DHT22;38503;48.544;12.142;2022-11-20T16:23:29;5.70;99.90
52609;DHT22;38503;48.544;12.142;2022-11-20T16:25:56;5.70;99.90
52609;DHT22;38503;48.544;12.142;2022-11-20T16:28:22;5.60;99.90
52609;DHT22;38503;48.544;12.142;2022-11-20T16:30:49;5.60;99.90
52609;DHT22;38503;48.544;12.142;2022-11-20T16:33:16;5.50;99.90
52609;DHT22;38503;48.544;12.142;2022-11-20T16:35:43;5.50;99.90
52609;DHT22;38503;48.544;12.142;2022-11-20T16:38:10;5.40;99.90
52609;DHT22;38503;48.544;12.142;2022-11-20T16:40:37;5.40;99.90
52609;DHT22;38503;48.544;12.142;2022-11-20T16:43:12;5.40;99.90
52609;DHT22;38503;48.544;12.142;2022-11-20T16:45:43;5.40;99.90
52609;DHT22;38503;48.544;12.142;2022-11-20T16:48:14;5.40;99.90
52609;DHT22;38503;48.544;12.142;2022-11-20T16:50:50;5.40;99.90
52609;DHT22;38503;48.544;12.142;2022-11-20T16:53:21;5.40;99.90
52609;DHT22;38503;48.544;12.142;2022-11-20T16:55:48;5.30;99.90
52609;DHT22;38503;48.544;12.142;2022-11-20T16:58:15;5.30;99.90
52609;DHT22;38503;48.544;12.142;2022-11-20T17:00:42;5.30;99.90
52609;DHT22;38503;48.544;12.142;2022-11-20T17:03:17;5.20;99.90
52609;DHT22;38503;48.544;12.142;2022-11-20T17:05:44;5.20;99.90
52609;DHT22;38503;48.544;12.142;2022-11-20T17:08:11;5.20;99.90
52609;DHT22;38503;48.544;12.142;2022-11-20T17:10:38;5.10;99.90
52609;DHT22;38503;48.544;12.142;2022-11-20T17:13:04;5.10;99.90
52609;DHT22;38503;48.544;12.142;2022-11-20T17:15:31;5.10;99.90
52609;DHT22;38503;48.544;12.142;2022-11-20T17:17:58;5.00;99.90
52609;DHT22;38503;48.544;12.142;2022-11-20T17:20:25;5.00;99.90
52609;DHT22;38503;48.544;12.142;2022-11-20T17:22:52;4.90;99.90
52609;DHT22;38503;48.544;12.142;2022-11-20T17:25:19;4.80;99.90